Time;durP1;ratioP1;P1;durP2;ratioP2;P2;SDS_P1;SDS_P2;PMS_P1;PMS_P2;Temp;Humidity;BMP_temperature;BMP_pressure;BME280_temperature;BME280_humidity;BME280_pressure;Samples;Min_cycle;Max_cycle;Signal;HPM_P1;HPM_P2
2022/12/18 00:01:17;;;;;;;56.90;30.37;;;-3.20;99.90;;;;;;5015905;28;20452;-79
2022/12/18 00:03:45;;;;;;;58.80;31.73;;;-3.30;99.90;;;;;;5005330;28;20489;-79
2022/12/18 00:06:13;;;;;;;65.90;33.33;;;-3.40;99.90;;;;;;5002961;28;20453;-79
2022/12/18 00:08:40;;;;;;;67.93;33.67;;;-3.40;99.90;;;;;;5017139;28;20485;-79
2022/12/18 00:11:15;;;;;;;58.53;32.83;;;-3.40;99.90;;;;;;4997372;28;20452;-79
2022/12/18 00:13:43;;;;;;;67.13;34.10;;;-3.40;99.90;;;;;;4997350;28;20445;-79
2022/12/18 00:16:14;;;;;;;64.60;34.77;;;-3.50;99.90;;;;;;5013026;28;20448;-79
2022/12/18 00:18:42;;;;;;;67.23;33.37;;;-3.50;99.90;;;;;;5006695;28;20798;-79
2022/12/18 00:21:10;;;;;;;63.13;32.37;;;-3.50;99.90;;;;;;4997122;28;20434;-79
2022/12/18 00:23:38;;;;;;;63.27;32.83;;;-3.60;99.90;;;;;;5007655;28;20508;-79
2022/12/18 00:26:09;;;;;;;65.60;33.43;;;-3.70;99.90;;;;;;5002719;28;20924;-79
2022/12/18 00:28:36;;;;;;;69.67;32.23;;;-3.70;99.90;;;;;;5004526;28;20462;-79
2022/12/18 00:31:04;;;;;;;59.70;32.57;;;-3.70;99.90;;;;;;4996389;28;20501;-79
2022/12/18 00:33:32;;;;;;;67.30;32.70;;;-3.70;99.90;;;;;;4996264;28;20465;-79
2022/12/18 00:36:01;;;;;;;55.83;30.80;;;-3.60;99.90;;;;;;4996046;28;20454;-78
2022/12/18 00:38:30;;;;;;;66.20;32.63;;;-3.70;99.90;;;;;;4996263;28;20452;-79
2022/12/18 00:40:57;;;;;;;59.83;31.87;;;-3.70;99.90;;;;;;4996515;28;20461;-79
2022/12/18 00:43:29;;;;;;;68.47;31.37;;;-3.70;99.90;;;;;;4996599;28;20450;-79
2022/12/18 00:45:57;;;;;;;53.50;30.17;;;-3.80;99.90;;;;;;4996251;28;20492;-79
2022/12/18 00:48:24;;;;;;;62.60;31.53;;;-3.80;99.90;;;;;;4996561;28;20462;-79
2022/12/18 00:50:52;;;;;;;57.37;30.87;;;-3.80;99.90;;;;;;4996493;28;20450;-80
2022/12/18 00:53:19;;;;;;;54.73;30.67;;;-3.90;99.90;;;;;;4996521;28;20450;-80
2022/12/18 00:55:46;;;;;;;61.40;30.87;;;-3.90;99.90;;;;;;4995156;28;20449;-79
2022/12/18 00:58:16;;;;;;;55.30;29.53;;;-3.90;99.90;;;;;;4996559;28;20426;-79
2022/12/18 01:00:43;;;;;;;58.27;30.47;;;-4.00;99.90;;;;;;4996255;28;20898;-79
2022/12/18 01:03:14;;;;;;;61.27;30.97;;;-4.00;99.90;;;;;;4996448;28;20958;-79
2022/12/18 01:05:42;;;;;;;63.20;31.63;;;-4.00;99.90;;;;;;4996418;28;20493;-79
2022/12/18 01:08:11;;;;;;;63.67;30.60;;;-4.10;99.90;;;;;;4996108;28;20454;-80
2022/12/18 01:10:41;;;;;;;59.78;32.17;;;-4.00;99.90;;;;;;4996451;28;20442;-78
2022/12/18 01:13:08;;;;;;;60.53;31.02;;;-4.10;99.90;;;;;;4996224;28;20209;-79
2022/12/18 01:15:40;;;;;;;53.23;29.27;;;-4.20;99.90;;;;;;4995791;28;20200;-79
2022/12/18 01:18:09;;;;;;;54.42;29.20;;;-4.30;99.90;;;;;;4996451;28;20946;-79
2022/12/18 01:20:36;;;;;;;67.07;38.90;;;-4.20;99.90;;;;;;4995582;28;20438;-79
2022/12/18 01:23:03;;;;;;;55.50;29.77;;;-4.20;99.90;;;;;;4995453;28;20217;-79
2022/12/18 01:25:31;;;;;;;57.63;29.77;;;-4.20;99.90;;;;;;4995760;28;20592;-80
2022/12/18 01:27:58;;;;;;;52.30;28.63;;;-4.20;99.90;;;;;;4996450;28;20438;-79
2022/12/18 01:30:26;;;;;;;56.40;28.38;;;-4.20;99.90;;;;;;4995477;28;20215;-79
2022/12/18 01:32:53;;;;;;;57.23;29.40;;;-4.20;99.90;;;;;;4995478;28;20228;-79
2022/12/18 01:35:21;;;;;;;58.73;29.27;;;-4.30;99.90;;;;;;4995269;28;20462;-79
2022/12/18 01:37:48;;;;;;;52.20;28.57;;;-4.30;99.90;;;;;;4995246;28;20969;-79
2022/12/18 01:40:15;;;;;;;56.03;28.47;;;-4.30;99.90;;;;;;4995388;28;20446;-79
2022/12/18 01:42:44;;;;;;;61.75;30.73;;;-4.30;99.90;;;;;;4995521;28;20447;-79
2022/12/18 01:45:25;;;;;;;58.92;29.50;;;-4.30;99.90;;;;;;4995598;28;20600;-79
2022/12/18 01:47:54;;;;;;;56.60;28.08;;;-4.30;99.90;;;;;;4994959;28;20193;-79
2022/12/18 01:50:22;;;;;;;54.13;29.98;;;-4.30;99.90;;;;;;4995608;28;20567;-79
2022/12/18 01:52:53;;;;;;;57.80;29.45;;;-4.30;99.90;;;;;;4995622;28;20215;-79
2022/12/18 01:55:22;;;;;;;60.78;30.27;;;-4.30;99.90;;;;;;4996063;28;20192;-79
2022/12/18 01:57:54;;;;;;;50.35;28.70;;;-4.30;99.90;;;;;;4996250;28;20188;-79
2022/12/18 02:00:22;;;;;;;57.43;29.87;;;-4.30;99.90;;;;;;4996353;28;20205;-79
2022/12/18 02:02:49;;;;;;;58.63;28.48;;;-4.40;99.90;;;;;;4996438;28;20446;-79
2022/12/18 02:05:21;;;;;;;51.85;28.08;;;-4.40;99.90;;;;;;4996563;28;20692;-79
2022/12/18 02:08:02;;;;;;;55.47;27.52;;;-4.40;99.90;;;;;;4995392;28;20231;-78
2022/12/18 02:10:42;;;;;;;56.67;30.33;;;-4.40;99.90;;;;;;4995705;28;20579;-79
2022/12/18 02:13:19;;;;;;;57.83;29.00;;;-4.40;99.90;;;;;;4995201;28;20212;-79
2022/12/18 02:15:54;;;;;;;51.45;28.42;;;-4.40;99.90;;;;;;4994956;28;20204;-78
2022/12/18 02:18:24;;;;;;;52.00;26.48;;;-4.50;99.90;;;;;;4995425;28;20200;-79
2022/12/18 02:20:58;;;;;;;60.58;29.00;;;-4.60;99.90;;;;;;4995210;28;20204;-79
2022/12/18 02:23:43;;;;;;;53.80;28.05;;;-4.70;99.90;;;;;;4994820;28;20678;-79
2022/12/18 02:26:18;;;;;;;58.97;27.63;;;-4.70;99.90;;;;;;4994461;28;20216;-79
2022/12/18 02:28:48;;;;;;;56.15;27.80;;;-4.70;99.90;;;;;;4994219;28;20215;-79
2022/12/18 02:31:25;;;;;;;56.85;29.48;;;-4.70;99.90;;;;;;4994436;28;20208;-78
2022/12/18 02:33:55;;;;;;;53.80;27.52;;;-4.70;99.90;;;;;;4993578;28;20595;-78
2022/12/18 02:36:24;;;;;;;51.97;26.63;;;-4.70;99.90;;;;;;4992654;28;20212;-79
2022/12/18 02:38:53;;;;;;;56.85;29.95;;;-4.80;99.90;;;;;;4994579;28;20208;-79
2022/12/18 02:41:23;;;;;;;56.83;28.30;;;-4.80;99.90;;;;;;4994293;28;20201;-79
2022/12/18 02:43:56;;;;;;;54.35;28.67;;;-4.80;99.90;;;;;;4994110;28;20203;-78
2022/12/18 02:46:34;;;;;;;55.45;28.63;;;-4.80;99.90;;;;;;4994251;28;20307;-79
2022/12/18 02:49:18;;;;;;;50.80;27.77;;;-4.80;99.90;;;;;;4994179;28;20215;-78
2022/12/18 02:51:52;;;;;;;52.90;27.75;;;-4.90;99.90;;;;;;4993939;28;20216;-79
2022/12/18 02:54:31;;;;;;;53.22;27.83;;;-4.90;99.90;;;;;;4994313;28;20192;-79
2022/12/18 02:57:10;;;;;;;57.72;29.17;;;-4.90;99.90;;;;;;4994560;28;20189;-79
2022/12/18 02:59:42;;;;;;;51.72;27.73;;;-5.00;99.90;;;;;;4994256;28;20192;-79
2022/12/18 03:02:20;;;;;;;55.20;26.70;;;-5.00;99.90;;;;;;4994409;28;20200;-79
2022/12/18 03:04:54;;;;;;;50.55;27.02;;;-5.00;99.90;;;;;;4993596;28;20250;-78
2022/12/18 03:07:40;;;;;;;50.67;26.60;;;-5.10;99.90;;;;;;4993928;28;20203;-78
2022/12/18 03:10:10;;;;;;;49.67;25.48;;;-5.10;99.90;;;;;;4994100;28;20208;-79
2022/12/18 03:12:43;;;;;;;50.65;24.85;;;-5.20;99.90;;;;;;4993507;28;20192;-78
2022/12/18 03:15:15;;;;;;;51.33;26.63;;;-5.20;99.90;;;;;;4994245;28;20201;-78
2022/12/18 03:17:45;;;;;;;46.92;24.20;;;-5.10;99.90;;;;;;4994285;28;20196;-79
2022/12/18 03:20:15;;;;;;;50.80;25.65;;;-5.10;99.90;;;;;;4997648;28;20201;-78
2022/12/18 03:22:47;;;;;;;51.75;26.00;;;-5.20;99.90;;;;;;4997802;28;20219;-78
2022/12/18 03:25:17;;;;;;;50.15;24.60;;;-5.20;99.90;;;;;;4998088;28;20239;-79
2022/12/18 03:27:50;;;;;;;51.58;26.13;;;-5.20;99.90;;;;;;4997615;28;20560;-79
2022/12/18 03:30:17;;;;;;;48.47;24.27;;;-5.20;99.90;;;;;;4997605;28;20189;-79
2022/12/18 03:32:49;;;;;;;42.28;23.95;;;-5.10;99.90;;;;;;4997595;28;20574;-79
2022/12/18 03:35:21;;;;;;;50.97;25.60;;;-5.30;99.90;;;;;;4996888;28;20217;-78
2022/12/18 03:37:50;;;;;;;51.25;24.40;;;-5.20;99.90;;;;;;4997095;28;20713;-78
2022/12/18 03:40:17;;;;;;;48.25;25.10;;;-5.20;99.90;;;;;;4998239;28;20200;-78
2022/12/18 03:42:49;;;;;;;56.60;30.23;;;-5.20;99.90;;;;;;4997442;28;20906;-78
2022/12/18 03:45:23;;;;;;;53.47;26.70;;;-5.20;99.90;;;;;;4997374;28;20228;-78
2022/12/18 03:48:04;;;;;;;45.85;24.67;;;-5.10;99.90;;;;;;4997086;28;20715;-78
2022/12/18 03:50:40;;;;;;;48.22;24.40;;;-5.10;99.90;;;;;;4998880;28;20572;-79
2022/12/18 03:53:18;;;;;;;48.08;23.23;;;-5.20;99.90;;;;;;5002928;28;20223;-79
2022/12/18 03:55:46;;;;;;;46.78;24.88;;;-5.20;99.90;;;;;;5003250;28;20566;-79
2022/12/18 03:58:18;;;;;;;42.55;22.85;;;-5.30;99.90;;;;;;5003392;28;20575;-78
2022/12/18 04:00:45;;;;;;;39.92;21.20;;;-5.30;99.90;;;;;;5003123;28;20188;-78
2022/12/18 04:03:14;;;;;;;45.30;22.10;;;-5.30;99.90;;;;;;4999643;28;20268;-78
2022/12/18 04:05:43;;;;;;;42.40;21.20;;;-5.40;99.90;;;;;;4997061;28;20228;-78
2022/12/18 04:08:10;;;;;;;41.40;20.25;;;-5.30;99.90;;;;;;4996999;28;20212;-77
2022/12/18 04:10:37;;;;;;;39.72;21.25;;;-5.30;99.90;;;;;;4996571;28;20209;-78
2022/12/18 04:13:03;;;;;;;39.80;20.63;;;-5.20;99.90;;;;;;4989217;28;20217;-77
2022/12/18 04:15:34;;;;;;;48.05;23.30;;;-5.20;99.90;;;;;;4985273;28;20228;-78
2022/12/18 04:18:02;;;;;;;38.45;21.52;;;-5.20;99.90;;;;;;4984965;28;20201;-78
2022/12/18 04:20:29;;;;;;;39.70;20.52;;;-5.30;99.90;;;;;;5003618;28;20264;-79
2022/12/18 04:22:56;;;;;;;43.03;22.00;;;-5.20;99.90;;;;;;5003318;28;20204;-78
2022/12/18 04:25:29;;;;;;;41.15;21.70;;;-5.30;99.90;;;;;;5003767;28;20220;-78
2022/12/18 04:27:56;;;;;;;44.38;20.85;;;-5.20;99.90;;;;;;5004431;28;20211;-79
2022/12/18 04:30:26;;;;;;;41.40;20.23;;;-5.10;99.90;;;;;;4990115;28;20583;-78
2022/12/18 04:32:55;;;;;;;42.78;22.52;;;-5.30;99.90;;;;;;5013556;28;20304;-78
2022/12/18 04:35:22;;;;;;;36.85;19.45;;;-5.30;99.90;;;;;;4996960;28;20220;-78
2022/12/18 04:37:50;;;;;;;41.53;21.20;;;-5.30;99.90;;;;;;4990890;28;20208;-78
2022/12/18 04:40:17;;;;;;;50.03;24.85;;;-5.40;99.90;;;;;;5001535;28;20444;-77
2022/12/18 04:42:44;;;;;;;39.63;22.35;;;-5.30;99.90;;;;;;5002247;28;20196;-77
2022/12/18 04:45:11;;;;;;;43.17;23.73;;;-5.30;99.90;;;;;;5015158;28;20203;-78
2022/12/18 04:47:37;;;;;;;40.22;21.50;;;-5.30;99.90;;;;;;4996453;28;20201;-78
2022/12/18 04:50:07;;;;;;;43.40;22.80;;;-5.20;99.90;;;;;;5002710;28;20209;-76
2022/12/18 04:52:33;;;;;;;43.63;21.73;;;-5.20;99.90;;;;;;5002990;28;20211;-78
2022/12/18 04:55:04;;;;;;;41.55;22.60;;;-5.30;99.90;;;;;;4989961;28;20201;-79
2022/12/18 04:57:30;;;;;;;41.38;21.13;;;-5.40;99.90;;;;;;5002607;28;20204;-79
2022/12/18 04:59:57;;;;;;;45.38;22.80;;;-5.40;99.90;;;;;;4995925;28;20217;-78
2022/12/18 05:02:30;;;;;;;42.65;21.95;;;-5.50;99.90;;;;;;4985580;28;20190;-78
2022/12/18 05:04:57;;;;;;;46.25;21.95;;;-5.50;99.90;;;;;;4996663;28;20219;-78
2022/12/18 05:07:28;;;;;;;40.45;21.25;;;-5.40;99.90;;;;;;4982709;28;20209;-78
2022/12/18 05:09:55;;;;;;;50.13;32.30;;;-5.40;99.90;;;;;;5004563;28;20444;-78
2022/12/18 05:12:21;;;;;;;45.90;23.40;;;-5.40;99.90;;;;;;4999517;28;20204;-78
2022/12/18 05:14:48;;;;;;;41.72;22.25;;;-5.50;99.90;;;;;;4995858;28;20231;-78
2022/12/18 05:17:17;;;;;;;41.22;21.33;;;-5.60;99.90;;;;;;4996787;28;20216;-78
2022/12/18 05:19:45;;;;;;;36.97;20.63;;;-5.70;99.90;;;;;;4996412;28;20211;-78
2022/12/18 05:22:12;;;;;;;39.47;20.50;;;-5.80;99.90;;;;;;4997287;28;20204;-78
2022/12/18 05:24:41;;;;;;;38.45;20.50;;;-5.80;99.90;;;;;;4997737;28;20212;-78
2022/12/18 05:27:07;;;;;;;40.15;20.42;;;-5.70;99.90;;;;;;4996304;28;20593;-78
2022/12/18 05:29:35;;;;;;;35.78;18.08;;;-5.70;99.90;;;;;;4995253;28;20206;-78
2022/12/18 05:32:01;;;;;;;33.92;19.00;;;-5.60;99.90;;;;;;4995792;28;20260;-78
2022/12/18 05:34:28;;;;;;;34.30;19.10;;;-5.60;99.90;;;;;;4995861;28;20219;-78
2022/12/18 05:36:56;;;;;;;38.00;19.88;;;-5.60;99.90;;;;;;4995368;28;20220;-78
2022/12/18 05:39:23;;;;;;;33.42;18.80;;;-5.60;99.90;;;;;;4995936;28;20212;-78
2022/12/18 05:41:57;;;;;;;36.35;18.10;;;-5.50;99.90;;;;;;4995301;28;20641;-78
2022/12/18 05:44:24;;;;;;;38.50;19.90;;;-5.60;99.90;;;;;;4995646;28;20632;-78
2022/12/18 05:46:57;;;;;;;37.05;19.42;;;-5.60;99.90;;;;;;4996102;28;20243;-78
2022/12/18 05:49:24;;;;;;;35.05;18.45;;;-5.60;99.90;;;;;;4995932;28;20193;-78
2022/12/18 05:51:51;;;;;;;33.78;18.27;;;-5.70;99.90;;;;;;4995485;28;20215;-78
2022/12/18 05:54:17;;;;;;;30.90;17.65;;;-5.60;99.90;;;;;;4995799;28;20204;-78
2022/12/18 05:56:45;;;;;;;34.72;19.13;;;-5.60;99.90;;;;;;4995651;28;20215;-78
2022/12/18 05:59:14;;;;;;;35.97;17.77;;;-5.70;99.90;;;;;;4995304;28;20200;-78
2022/12/18 06:01:41;;;;;;;33.83;17.77;;;-5.60;99.90;;;;;;4988745;28;20200;-78
2022/12/18 06:04:07;;;;;;;36.88;19.35;;;-5.60;99.90;;;;;;4975036;28;20201;-78
2022/12/18 06:06:35;;;;;;;32.90;17.77;;;-5.60;99.90;;;;;;4974412;28;20216;-77
2022/12/18 06:09:07;;;;;;;32.78;17.88;;;-5.50;99.90;;;;;;4974660;28;20208;-78
2022/12/18 06:11:38;;;;;;;34.17;17.83;;;-5.50;99.90;;;;;;4990948;28;20235;-78
2022/12/18 06:14:07;;;;;;;33.40;16.60;;;-5.40;99.90;;;;;;4994788;28;20193;-77
2022/12/18 06:16:36;;;;;;;32.63;18.33;;;-5.40;99.90;;;;;;4994871;28;20208;-78
2022/12/18 06:19:06;;;;;;;32.38;17.65;;;-5.40;99.90;;;;;;4995677;28;20189;-78
2022/12/18 06:21:33;;;;;;;34.15;17.85;;;-5.40;99.90;;;;;;4995369;28;20203;-78
2022/12/18 06:24:07;;;;;;;31.70;17.42;;;-5.40;99.90;;;;;;4997662;28;20668;-78
2022/12/18 06:26:34;;;;;;;34.75;19.52;;;-5.40;99.90;;;;;;4998388;28;20220;-79
2022/12/18 06:29:07;;;;;;;35.75;19.40;;;-5.40;99.90;;;;;;4998803;28;20239;-79
2022/12/18 06:31:40;;;;;;;32.90;18.13;;;-5.40;99.90;;;;;;4998946;28;20193;-79
2022/12/18 06:34:07;;;;;;;31.35;18.05;;;-5.40;99.90;;;;;;4996306;28;20212;-77
2022/12/18 06:36:33;;;;;;;29.55;16.52;;;-5.30;99.90;;;;;;4996226;28;20648;-78
2022/12/18 06:39:00;;;;;;;30.27;16.73;;;-5.40;99.90;;;;;;4996591;28;20207;-79
2022/12/18 06:41:30;;;;;;;33.22;18.30;;;-5.40;99.90;;;;;;4998247;28;20208;-78
2022/12/18 06:43:58;;;;;;;36.85;17.20;;;-5.40;99.90;;;;;;5000344;28;20200;-78
2022/12/18 06:46:25;;;;;;;34.13;17.52;;;-5.40;99.90;;;;;;4997617;28;20228;-78
2022/12/18 06:48:53;;;;;;;29.77;16.73;;;-5.40;99.90;;;;;;5001778;28;20211;-79
2022/12/18 06:51:24;;;;;;;30.52;16.52;;;-5.50;99.90;;;;;;5002172;28;20201;-79
2022/12/18 06:53:51;;;;;;;37.55;18.63;;;-5.50;99.90;;;;;;5000508;28;20209;-79
2022/12/18 06:56:18;;;;;;;28.95;16.83;;;-5.50;99.90;;;;;;5000695;28;20660;-79
2022/12/18 06:58:45;;;;;;;28.80;16.35;;;-5.60;99.90;;;;;;5000449;28;20200;-78
2022/12/18 07:01:13;;;;;;;34.08;18.75;;;-5.60;99.90;;;;;;4998484;28;20209;-77
2022/12/18 07:03:40;;;;;;;31.60;17.30;;;-5.60;99.90;;;;;;4995456;28;20213;-78
2022/12/18 07:06:15;;;;;;;31.42;17.80;;;-5.50;99.90;;;;;;4994221;28;20216;-78
2022/12/18 07:08:42;;;;;;;28.65;16.10;;;-5.50;99.90;;;;;;4994065;28;20192;-78
2022/12/18 07:11:09;;;;;;;30.17;17.92;;;-5.50;99.90;;;;;;4993847;28;20204;-78
2022/12/18 07:13:37;;;;;;;34.53;17.73;;;-5.40;99.90;;;;;;4993773;28;20207;-78
2022/12/18 07:16:08;;;;;;;30.90;17.25;;;-5.50;99.90;;;;;;4994008;28;20226;-78
2022/12/18 07:18:35;;;;;;;35.30;17.48;;;-5.40;99.90;;;;;;4994461;28;20193;-78
2022/12/18 07:21:06;;;;;;;33.15;17.55;;;-5.40;99.90;;;;;;4994602;28;20651;-79
2022/12/18 07:23:35;;;;;;;35.25;17.08;;;-5.40;99.90;;;;;;4994132;28;20200;-78
2022/12/18 07:26:07;;;;;;;28.77;17.45;;;-5.50;99.90;;;;;;4994529;28;20215;-78
2022/12/18 07:28:37;;;;;;;31.48;15.93;;;-5.50;99.90;;;;;;4995150;28;20251;-79
2022/12/18 07:31:05;;;;;;;28.92;16.30;;;-5.50;99.90;;;;;;4994616;28;20212;-78
2022/12/18 07:33:32;;;;;;;28.08;15.55;;;-5.50;99.90;;;;;;4993810;28;20224;-78
2022/12/18 07:36:01;;;;;;;31.15;16.13;;;-5.50;99.90;;;;;;4993892;28;20211;-78
2022/12/18 07:38:28;;;;;;;26.92;15.77;;;-5.40;99.90;;;;;;4993920;28;20209;-78
2022/12/18 07:41:00;;;;;;;26.73;14.68;;;-5.40;99.90;;;;;;4992783;28;20610;-77
2022/12/18 07:43:27;;;;;;;30.20;15.32;;;-5.40;99.90;;;;;;4987222;28;20227;-78
2022/12/18 07:45:54;;;;;;;29.58;15.25;;;-5.40;99.90;;;;;;4993796;28;20204;-78
2022/12/18 07:48:21;;;;;;;24.95;13.70;;;-5.40;99.90;;;;;;4993914;28;20247;-78
2022/12/18 07:50:48;;;;;;;26.63;14.02;;;-5.40;99.90;;;;;;4994820;28;20215;-78
2022/12/18 07:53:15;;;;;;;27.55;14.18;;;-5.30;99.90;;;;;;4994697;28;20211;-79
2022/12/18 07:55:43;;;;;;;25.13;13.73;;;-5.30;99.90;;;;;;4995101;28;20192;-78
2022/12/18 07:58:12;;;;;;;24.25;13.90;;;-5.30;99.90;;;;;;4995010;28;20205;-79
2022/12/18 08:00:39;;;;;;;40.25;22.23;;;-5.30;99.90;;;;;;4994105;28;20192;-78
2022/12/18 08:03:06;;;;;;;23.88;14.02;;;-5.30;99.90;;;;;;4994978;28;20209;-79
2022/12/18 08:05:33;;;;;;;26.63;13.88;;;-5.30;99.90;;;;;;5001442;28;20251;-78
2022/12/18 08:08:02;;;;;;;24.50;12.77;;;-5.30;99.90;;;;;;5005558;28;20225;-79
2022/12/18 08:10:35;;;;;;;22.75;13.82;;;-5.20;99.90;;;;;;5004351;28;20271;-79
2022/12/18 08:13:03;;;;;;;26.42;13.98;;;-5.10;99.90;;;;;;5003036;28;20196;-78
2022/12/18 08:15:32;;;;;;;21.40;13.18;;;-5.00;99.90;;;;;;5007896;28;20192;-79
2022/12/18 08:18:00;;;;;;;23.63;12.68;;;-4.90;99.90;;;;;;5004358;28;20657;-79
2022/12/18 08:20:26;;;;;;;23.48;13.13;;;-4.80;99.90;;;;;;4997117;28;20730;-78
2022/12/18 08:22:54;;;;;;;22.70;12.40;;;-4.80;99.90;;;;;;4997394;28;20772;-78
2022/12/18 08:25:21;;;;;;;28.83;14.20;;;-4.70;99.90;;;;;;4998112;28;20193;-79
2022/12/18 08:27:48;;;;;;;23.73;12.93;;;-4.80;99.90;;;;;;4997939;28;20315;-79
2022/12/18 08:30:16;;;;;;;22.52;12.27;;;-4.70;99.90;;;;;;4995206;28;20196;-78
2022/12/18 08:32:44;;;;;;;20.67;10.65;;;-4.60;99.90;;;;;;4997827;28;20220;-79
2022/12/18 08:35:11;;;;;;;18.75;11.52;;;-4.40;99.90;;;;;;4997092;28;20215;-79
2022/12/18 08:37:39;;;;;;;16.67;10.35;;;-4.30;99.90;;;;;;4997933;28;20604;-79
2022/12/18 08:40:08;;;;;;;16.40;10.40;;;-4.20;99.90;;;;;;4997697;28;20196;-78
2022/12/18 08:45:19;;;;;;;14.27;10.30;;;-4.00;99.90;;;;;;5002054;28;20445;-80
2022/12/18 08:47:47;;;;;;;18.17;10.67;;;-3.90;99.90;;;;;;4997871;28;20490;-76
2022/12/18 08:50:15;;;;;;;18.10;10.53;;;-3.70;99.90;;;;;;4996052;28;20441;-76
2022/12/18 08:52:41;;;;;;;17.23;10.13;;;-3.50;99.90;;;;;;4996544;28;20497;-77
2022/12/18 08:55:09;;;;;;;16.77;10.87;;;-3.30;99.90;;;;;;4996431;28;20441;-77
2022/12/18 08:57:36;;;;;;;19.20;11.07;;;-3.20;99.90;;;;;;4995961;28;20438;-77
2022/12/18 09:00:04;;;;;;;16.30;10.63;;;-3.20;99.90;;;;;;4995830;28;20439;-77
2022/12/18 09:02:31;;;;;;;15.53;10.33;;;-3.00;99.90;;;;;;4996194;28;20439;-77
2022/12/18 09:04:59;;;;;;;17.77;11.40;;;-2.80;99.90;;;;;;4996415;28;20446;-76
2022/12/18 09:07:25;;;;;;;17.97;11.13;;;-2.70;99.90;;;;;;4995522;28;20477;-77
2022/12/18 09:09:52;;;;;;;15.87;9.97;;;-2.60;99.90;;;;;;4995927;28;20454;-77
2022/12/18 09:12:19;;;;;;;17.10;10.10;;;-2.50;99.90;;;;;;4996291;28;20797;-77
2022/12/18 09:14:46;;;;;;;17.83;11.07;;;-2.50;99.90;;;;;;4995773;28;20880;-78
2022/12/18 09:17:12;;;;;;;18.70;11.17;;;-2.50;99.90;;;;;;4994540;28;20953;-77
2022/12/18 09:19:39;;;;;;;16.67;11.20;;;-2.50;99.90;;;;;;4995703;28;20523;-77
2022/12/18 09:22:09;;;;;;;16.43;10.73;;;-2.40;99.90;;;;;;4994859;28;20461;-78
2022/12/18 09:24:36;;;;;;;18.30;11.70;;;-2.40;99.90;;;;;;4996051;28;20505;-77
2022/12/18 09:27:02;;;;;;;16.93;11.27;;;-2.30;99.90;;;;;;4996817;28;20489;-77
2022/12/18 09:29:29;;;;;;;18.90;11.53;;;-2.10;99.90;;;;;;4995923;28;20493;-77
2022/12/18 09:31:58;;;;;;;17.07;10.57;;;-2.00;99.90;;;;;;4995329;28;20761;-77
2022/12/18 09:34:25;;;;;;;16.53;11.47;;;-1.90;99.90;;;;;;4996789;28;20466;-78
2022/12/18 09:36:52;;;;;;;14.57;10.83;;;-1.80;99.90;;;;;;4995477;28;20450;-76
2022/12/18 09:39:20;;;;;;;19.97;11.50;;;-1.70;99.90;;;;;;4996402;28;20454;-77
2022/12/18 09:41:50;;;;;;;14.20;10.10;;;-1.60;99.90;;;;;;4995443;28;20485;-77
2022/12/18 09:44:23;;;;;;;15.40;10.37;;;-1.50;99.90;;;;;;4995355;28;20965;-77
2022/12/18 09:47:01;;;;;;;16.63;10.27;;;-1.50;99.90;;;;;;4995092;28;21012;-77
2022/12/18 09:49:30;;;;;;;16.50;10.60;;;-1.40;99.90;;;;;;4995504;28;20489;-77
2022/12/18 09:52:02;;;;;;;14.53;10.00;;;-1.30;99.90;;;;;;4995161;28;20431;-78
2022/12/18 09:54:34;;;;;;;15.47;10.20;;;-1.20;99.90;;;;;;4995363;28;20517;-76
2022/12/18 09:57:01;;;;;;;12.20;9.50;;;-1.20;99.90;;;;;;4993874;28;20776;-77
2022/12/18 09:59:32;;;;;;;15.60;9.80;;;-1.10;99.90;;;;;;4994587;28;20922;-77
2022/12/18 10:01:59;;;;;;;15.43;10.67;;;-1.10;99.90;;;;;;4994040;28;20437;-76
2022/12/18 10:04:32;;;;;;;14.13;10.07;;;-1.10;99.90;;;;;;4994521;28;20457;-77
2022/12/18 10:07:07;;;;;;;17.63;10.40;;;-1.00;99.90;;;;;;4994638;28;20474;-77
2022/12/18 10:09:42;;;;;;;15.07;9.43;;;-0.90;99.90;;;;;;4994914;28;20446;-77
2022/12/18 10:12:18;;;;;;;14.80;10.40;;;-0.80;99.90;;;;;;4975337;28;20461;-77
2022/12/18 10:14:52;;;;;;;16.67;10.70;;;-0.60;99.90;;;;;;4987423;28;20520;-78
2022/12/18 10:17:26;;;;;;;14.13;9.70;;;-0.70;99.90;;;;;;4994622;28;20434;-77
2022/12/18 10:19:57;;;;;;;18.67;10.40;;;-0.60;99.90;;;;;;4994659;28;20450;-77
2022/12/18 10:22:35;;;;;;;14.00;9.57;;;-0.50;99.90;;;;;;4993709;28;20450;-77
2022/12/18 10:25:07;;;;;;;14.23;9.67;;;-0.40;99.90;;;;;;4992486;28;20454;-77
2022/12/18 10:27:34;;;;;;;13.83;9.57;;;-0.30;99.90;;;;;;4990287;28;20486;-77
2022/12/18 10:30:09;;;;;;;17.17;13.15;;;-0.20;99.90;;;;;;4992279;28;20437;-78
2022/12/18 10:32:36;;;;;;;15.20;10.70;;;-0.10;99.90;;;;;;4990829;28;20583;-77
2022/12/18 10:35:03;;;;;;;12.57;9.60;;;0.00;99.90;;;;;;4983239;28;20459;-77
2022/12/18 10:37:30;;;;;;;15.23;10.60;;;0.00;99.90;;;;;;4991121;28;20918;-78
2022/12/18 10:40:12;;;;;;;17.97;10.33;;;0.00;99.90;;;;;;4993730;28;20438;-78
2022/12/18 10:42:39;;;;;;;16.13;10.20;;;0.00;99.90;;;;;;4992383;28;20849;-78
2022/12/18 10:45:15;;;;;;;14.93;10.37;;;0.00;99.90;;;;;;4982877;28;20423;-78
2022/12/18 10:47:47;;;;;;;15.83;10.70;;;0.20;99.90;;;;;;4984432;28;20483;-78
2022/12/18 10:50:23;;;;;;;15.00;10.23;;;0.30;99.90;;;;;;4991618;28;20801;-78
2022/12/18 10:52:58;;;;;;;15.13;10.73;;;0.30;99.90;;;;;;4991366;28;20446;-78
2022/12/18 10:55:32;;;;;;;16.83;10.90;;;0.10;99.90;;;;;;4993915;28;20811;-77
2022/12/18 10:58:18;;;;;;;14.47;10.57;;;0.30;99.90;;;;;;4993491;28;20461;-78
2022/12/18 11:00:44;;;;;;;16.73;10.93;;;0.30;99.90;;;;;;4993136;28;20578;-78
2022/12/18 11:03:31;;;;;;;14.90;10.80;;;0.40;99.90;;;;;;4994560;28;20443;-78
2022/12/18 11:06:04;;;;;;;17.30;11.30;;;0.30;99.90;;;;;;4994900;28;20445;-79
2022/12/18 11:08:31;;;;;;;17.30;11.10;;;0.40;99.90;;;;;;4994060;28;20506;-78
2022/12/18 11:11:00;;;;;;;15.60;10.57;;;0.40;99.90;;;;;;4994931;28;20435;-78
2022/12/18 11:13:31;;;;;;;21.43;11.80;;;0.60;99.90;;;;;;4994578;28;20431;-79
2022/12/18 11:15:58;;;;;;;16.00;10.27;;;0.70;99.90;;;;;;4994585;28;20490;-78
2022/12/18 11:18:29;;;;;;;20.30;10.20;;;0.50;99.90;;;;;;4999714;28;20842;-79
2022/12/18 11:20:59;;;;;;;13.60;10.20;;;0.60;99.90;;;;;;4997500;28;20449;-79
2022/12/18 11:23:28;;;;;;;16.20;11.40;;;0.70;99.90;;;;;;4993773;28;20458;-80
2022/12/18 11:25:58;;;;;;;15.13;10.47;;;0.70;99.90;;;;;;4986196;28;20548;-80
2022/12/18 11:28:36;;;;;;;16.73;11.43;;;0.80;99.90;;;;;;4999508;28;20576;-80
2022/12/18 11:31:23;;;;;;;16.83;11.33;;;0.90;99.90;;;;;;5005150;28;20476;-80
2022/12/18 11:33:57;;;;;;;20.07;11.23;;;0.80;99.90;;;;;;5003176;28;20486;-79
2022/12/18 11:36:26;;;;;;;14.33;10.70;;;0.90;99.90;;;;;;4998881;28;20960;-80
2022/12/18 11:38:56;;;;;;;14.70;11.13;;;0.80;99.90;;;;;;4998822;28;20462;-80
2022/12/18 11:44:19;;;;;;;16.23;11.20;;;1.10;99.90;;;;;;4989195;28;20470;-80
2022/12/18 11:46:52;;;;;;;17.23;11.83;;;1.10;99.90;;;;;;4998873;28;20453;-79
2022/12/18 12:13:02;;;;;;;16.53;11.33;;;1.30;99.90;;;;;;5069576;23;20518;-88
2022/12/18 12:16:04;;;;;;;16.20;11.67;;;1.40;99.90;;;;;;5041150;28;20428;-87
2022/12/18 12:19:03;;;;;;;17.77;12.43;;;1.20;99.90;;;;;;5040693;28;20417;-87
2022/12/18 12:21:40;;;;;;;15.60;10.97;;;1.10;99.90;;;;;;5036879;28;20562;-87
2022/12/18 12:24:35;;;;;;;17.93;11.37;;;1.00;99.90;;;;;;5039095;28;20450;-87
2022/12/18 12:38:01;;;;;;;17.53;10.67;;;1.00;99.90;;;;;;5001980;28;20435;-88
2022/12/18 12:48:13;;;;;;;18.10;11.97;;;1.10;99.90;;;;;;4943375;29;20442;-85
2022/12/18 14:41:29;;;;;;;25.37;14.60;;;1.00;99.90;;;;;;4853892;29;20445;-82
2022/12/18 15:01:07;;;;;;;32.47;16.33;;;0.90;99.90;;;;;;4872767;29;20500;-82
2022/12/18 15:47:11;;;;;;;33.00;23.48;;;1.30;99.90;;;;;;5099286;28;20432;-86
2022/12/18 16:16:39;;;;;;;24.97;15.17;;;1.60;99.90;;;;;;5110389;28;20450;-84
2022/12/18 16:26:14;;;;;;;26.30;15.73;;;1.60;99.90;;;;;;5097713;28;20434;-85
2022/12/18 16:43:06;;;;;;;32.33;17.20;;;1.50;99.90;;;;;;5021255;28;20414;-84
2022/12/18 16:46:25;;;;;;;48.70;28.63;;;1.50;99.90;;;;;;5039033;28;20960;-85
2022/12/18 16:52:51;;;;;;;34.33;20.90;;;1.60;99.90;;;;;;5094056;28;20497;-85
2022/12/18 16:59:14;;;;;;;31.33;19.93;;;1.70;99.90;;;;;;5094878;28;20446;-83
2022/12/18 17:01:56;;;;;;;31.40;17.83;;;1.70;99.90;;;;;;5115169;22;20492;-94
2022/12/18 17:07:11;;;;;;;30.33;17.20;;;1.60;99.90;;;;;;5103273;28;20437;-92
2022/12/18 17:09:49;;;;;;;31.00;19.47;;;1.70;99.90;;;;;;5083636;28;20462;-93
2022/12/18 17:12:17;;;;;;;28.40;17.77;;;1.60;99.90;;;;;;5083964;28;20478;-94
2022/12/18 17:14:47;;;;;;;27.13;15.60;;;1.60;99.90;;;;;;5081383;28;20474;-93
2022/12/18 17:17:21;;;;;;;27.33;15.63;;;1.60;99.90;;;;;;5079465;28;20431;-94
2022/12/18 17:19:48;;;;;;;29.20;16.93;;;1.60;99.90;;;;;;5068505;28;20506;-93
2022/12/18 17:22:16;;;;;;;28.53;18.73;;;1.50;99.90;;;;;;5078743;28;20504;-93